sensor_id;sensor_type;location;lat;lon;timestamp;pressure;altitude;pressure_sealevel;temperature;humidity
61908;BME280;47864;52.526;19.672;2023-02-17T00:01:40;101226.78;;;4.50;100.00
61908;BME280;47864;52.526;19.672;2023-02-17T00:03:42;101221.13;;;4.56;100.00
61908;BME280;47864;52.526;19.672;2023-02-17T00:05:43;101189.44;;;4.45;100.00
61908;BME280;47864;52.526;19.672;2023-02-17T00:07:45;101206.41;;;4.54;100.00
61908;BME280;47864;52.526;19.672;2023-02-17T00:09:46;101209.59;;;4.59;100.00
61908;BME280;47864;52.526;19.672;2023-02-17T00:11:48;101207.25;;;4.54;100.00
61908;BME280;47864;52.526;19.672;2023-02-17T00:13:50;101199.28;;;4.56;100.00
61908;BME280;47864;52.526;19.672;2023-02-17T00:15:52;101188.13;;;4.52;100.00
61908;BME280;47864;52.526;19.672;2023-02-17T00:17:54;101196.38;;;4.61;100.00
61908;BME280;47864;52.526;19.672;2023-02-17T00:19:55;101198.88;;;4.62;100.00
61908;BME280;47864;52.526;19.672;2023-02-17T00:22:01;101198.34;;;4.57;100.00
61908;BME280;47864;52.526;19.672;2023-02-17T00:24:02;101195.91;;;4.54;100.00
61908;BME280;47864;52.526;19.672;2023-02-17T00:26:05;101199.38;;;4.54;100.00
61908;BME280;47864;52.526;19.672;2023-02-17T00:28:07;101192.19;;;4.44;100.00
61908;BME280;47864;52.526;19.672;2023-02-17T00:30:09;101190.00;;;4.50;100.00
61908;BME280;47864;52.526;19.672;2023-02-17T00:32:11;101193.75;;;4.61;100.00
61908;BME280;47864;52.526;19.672;2023-02-17T00:34:13;101182.47;;;4.58;100.00
61908;BME280;47864;52.526;19.672;2023-02-17T00:36:17;101194.28;;;4.66;100.00
61908;BME280;47864;52.526;19.672;2023-02-17T00:38:19;101184.84;;;4.49;100.00
61908;BME280;47864;52.526;19.672;2023-02-17T00:40:20;101194.78;;;4.58;100.00
61908;BME280;47864;52.526;19.672;2023-02-17T00:42:22;101192.16;;;4.58;100.00
61908;BME280;47864;52.526;19.672;2023-02-17T00:44:24;101197.41;;;4.58;100.00
61908;BME280;47864;52.526;19.672;2023-02-17T00:46:26;101192.69;;;4.22;100.00
61908;BME280;47864;52.526;19.672;2023-02-17T00:48:27;101181.19;;;4.10;100.00
61908;BME280;47864;52.526;19.672;2023-02-17T00:50:29;101187.06;;;4.14;100.00
61908;BME280;47864;52.526;19.672;2023-02-17T00:52:30;101172.63;;;4.07;100.00
61908;BME280;47864;52.526;19.672;2023-02-17T00:54:32;101178.88;;;4.33;100.00
61908;BME280;47864;52.526;19.672;2023-02-17T00:56:33;101168.81;;;4.39;100.00
61908;BME280;47864;52.526;19.672;2023-02-17T00:58:35;101171.13;;;4.58;100.00
61908;BME280;47864;52.526;19.672;2023-02-17T01:00:37;101045.28;;;3.73;100.00
61908;BME280;47864;52.526;19.672;2023-02-17T01:02:38;101182.38;;;4.60;100.00
61908;BME280;47864;52.526;19.672;2023-02-17T01:04:39;101164.91;;;4.32;100.00
61908;BME280;47864;52.526;19.672;2023-02-17T01:06:41;101127.47;;;4.29;100.00
61908;BME280;47864;52.526;19.672;2023-02-17T01:08:42;101173.94;;;4.55;100.00
61908;BME280;47864;52.526;19.672;2023-02-17T01:10:45;101173.66;;;4.59;100.00
61908;BME280;47864;52.526;19.672;2023-02-17T01:12:47;101173.25;;;4.66;100.00
61908;BME280;47864;52.526;19.672;2023-02-17T01:14:48;101154.63;;;4.56;100.00
61908;BME280;47864;52.526;19.672;2023-02-17T01:16:50;101174.84;;;4.68;100.00
61908;BME280;47864;52.526;19.672;2023-02-17T01:18:51;101146.34;;;4.62;100.00
61908;BME280;47864;52.526;19.672;2023-02-17T01:20:53;101162.44;;;4.70;100.00
61908;BME280;47864;52.526;19.672;2023-02-17T01:22:55;101166.25;;;4.79;100.00
61908;BME280;47864;52.526;19.672;2023-02-17T01:24:56;101160.28;;;4.77;100.00
61908;BME280;47864;52.526;19.672;2023-02-17T01:26:58;101153.84;;;4.68;100.00
61908;BME280;47864;52.526;19.672;2023-02-17T01:29:00;101131.72;;;4.58;100.00
61908;BME280;47864;52.526;19.672;2023-02-17T01:31:09;101150.03;;;4.45;100.00
61908;BME280;47864;52.526;19.672;2023-02-17T01:33:11;101169.13;;;4.35;100.00
61908;BME280;47864;52.526;19.672;2023-02-17T01:35:13;101162.63;;;4.40;100.00
61908;BME280;47864;52.526;19.672;2023-02-17T01:37:14;101160.09;;;4.39;100.00
61908;BME280;47864;52.526;19.672;2023-02-17T01:39:16;101149.34;;;4.29;100.00
61908;BME280;47864;52.526;19.672;2023-02-17T01:41:20;101163.13;;;4.33;100.00
61908;BME280;47864;52.526;19.672;2023-02-17T01:43:21;101165.75;;;4.33;100.00
61908;BME280;47864;52.526;19.672;2023-02-17T01:45:30;101163.47;;;4.41;100.00
61908;BME280;47864;52.526;19.672;2023-02-17T01:47:32;101157.13;;;4.31;100.00
61908;BME280;47864;52.526;19.672;2023-02-17T01:49:38;101150.97;;;4.17;100.00
61908;BME280;47864;52.526;19.672;2023-02-17T01:51:42;101143.72;;;4.21;100.00
61908;BME280;47864;52.526;19.672;2023-02-17T01:53:49;101141.56;;;4.28;100.00
61908;BME280;47864;52.526;19.672;2023-02-17T01:55:53;101150.56;;;4.24;100.00
61908;BME280;47864;52.526;19.672;2023-02-17T01:57:57;101155.28;;;4.18;100.00
61908;BME280;47864;52.526;19.672;2023-02-17T02:00:01;101126.41;;;4.18;100.00
61908;BME280;47864;52.526;19.672;2023-02-17T02:02:04;101115.06;;;4.04;100.00
61908;BME280;47864;52.526;19.672;2023-02-17T02:04:06;101141.09;;;4.21;100.00
61908;BME280;47864;52.526;19.672;2023-02-17T02:06:13;101129.97;;;4.17;100.00
61908;BME280;47864;52.526;19.672;2023-02-17T02:08:16;101122.84;;;4.19;100.00
61908;BME280;47864;52.526;19.672;2023-02-17T02:10:18;101093.22;;;4.17;100.00
61908;BME280;47864;52.526;19.672;2023-02-17T02:12:22;101100.84;;;4.35;100.00
61908;BME280;47864;52.526;19.672;2023-02-17T02:14:24;101118.03;;;4.53;100.00
61908;BME280;47864;52.526;19.672;2023-02-17T02:16:47;101111.78;;;4.41;100.00
61908;BME280;47864;52.526;19.672;2023-02-17T02:31:07;101081.22;;;4.80;100.00
61908;BME280;47864;52.526;19.672;2023-02-17T02:33:19;101091.91;;;4.64;100.00
61908;BME280;47864;52.526;19.672;2023-02-17T02:37:33;101094.25;;;4.81;100.00
61908;BME280;47864;52.526;19.672;2023-02-17T02:39:38;101079.88;;;4.87;100.00
61908;BME280;47864;52.526;19.672;2023-02-17T02:41:44;101078.47;;;4.69;100.00
61908;BME280;47864;52.526;19.672;2023-02-17T02:43:47;101081.44;;;4.89;100.00
61908;BME280;47864;52.526;19.672;2023-02-17T02:45:49;101078.72;;;4.91;100.00
61908;BME280;47864;52.526;19.672;2023-02-17T02:47:53;101073.88;;;4.97;100.00
61908;BME280;47864;52.526;19.672;2023-02-17T02:49:55;101064.22;;;4.85;100.00
61908;BME280;47864;52.526;19.672;2023-02-17T02:56:39;101063.16;;;4.88;100.00
61908;BME280;47864;52.526;19.672;2023-02-17T03:01:04;101052.53;;;4.89;100.00
61908;BME280;47864;52.526;19.672;2023-02-17T03:03:22;101072.22;;;4.96;100.00
61908;BME280;47864;52.526;19.672;2023-02-17T03:07:59;101073.56;;;4.77;100.00
61908;BME280;47864;52.526;19.672;2023-02-17T03:10:05;101069.19;;;4.63;100.00
61908;BME280;47864;52.526;19.672;2023-02-17T03:12:07;101058.50;;;4.66;100.00
61908;BME280;47864;52.526;19.672;2023-02-17T03:14:11;101069.34;;;4.74;100.00
61908;BME280;47864;52.526;19.672;2023-02-17T03:16:13;101051.13;;;4.71;100.00
61908;BME280;47864;52.526;19.672;2023-02-17T03:18:15;101076.72;;;4.82;100.00
61908;BME280;47864;52.526;19.672;2023-02-17T03:20:16;101074.59;;;4.74;100.00
61908;BME280;47864;52.526;19.672;2023-02-17T03:22:21;101081.53;;;4.75;100.00
61908;BME280;47864;52.526;19.672;2023-02-17T03:24:23;101072.22;;;4.96;100.00
61908;BME280;47864;52.526;19.672;2023-02-17T03:26:25;101028.88;;;4.77;100.00
61908;BME280;47864;52.526;19.672;2023-02-17T03:28:26;101069.19;;;5.15;100.00
61908;BME280;47864;52.526;19.672;2023-02-17T03:30:28;101079.66;;;5.03;100.00
61908;BME280;47864;52.526;19.672;2023-02-17T03:32:29;101081.25;;;5.05;100.00
61908;BME280;47864;52.526;19.672;2023-02-17T03:34:31;101079.56;;;4.91;100.00
61908;BME280;47864;52.526;19.672;2023-02-17T03:36:33;101077.28;;;5.00;100.00
61908;BME280;47864;52.526;19.672;2023-02-17T03:38:34;101044.75;;;4.88;100.00
61908;BME280;47864;52.526;19.672;2023-02-17T03:40:36;101073.91;;;5.23;100.00
61908;BME280;47864;52.526;19.672;2023-02-17T03:42:37;101061.09;;;5.18;100.00
61908;BME280;47864;52.526;19.672;2023-02-17T03:44:39;101074.41;;;5.03;100.00
61908;BME280;47864;52.526;19.672;2023-02-17T03:46:40;101051.19;;;4.96;100.00
61908;BME280;47864;52.526;19.672;2023-02-17T03:48:42;101054.25;;;5.16;100.00
61908;BME280;47864;52.526;19.672;2023-02-17T03:50:44;101061.06;;;5.31;100.00
61908;BME280;47864;52.526;19.672;2023-02-17T03:52:45;101043.94;;;5.25;100.00
61908;BME280;47864;52.526;19.672;2023-02-17T03:54:47;101066.97;;;5.34;100.00
61908;BME280;47864;52.526;19.672;2023-02-17T03:56:48;101066.03;;;5.23;100.00
61908;BME280;47864;52.526;19.672;2023-02-17T03:58:50;101049.81;;;4.91;100.00
61908;BME280;47864;52.526;19.672;2023-02-17T04:00:51;101050.19;;;4.72;100.00
61908;BME280;47864;52.526;19.672;2023-02-17T04:02:53;101067.03;;;4.95;100.00
61908;BME280;47864;52.526;19.672;2023-02-17T04:04:54;101052.88;;;5.10;100.00
61908;BME280;47864;52.526;19.672;2023-02-17T04:06:56;101034.16;;;5.02;100.00
61908;BME280;47864;52.526;19.672;2023-02-17T04:08:57;101028.78;;;5.04;100.00
61908;BME280;47864;52.526;19.672;2023-02-17T04:11:00;101057.28;;;5.22;100.00
61908;BME280;47864;52.526;19.672;2023-02-17T04:13:02;101043.28;;;4.96;100.00
61908;BME280;47864;52.526;19.672;2023-02-17T04:15:04;101034.13;;;4.89;100.00
61908;BME280;47864;52.526;19.672;2023-02-17T04:17:05;101046.56;;;5.13;100.00
61908;BME280;47864;52.526;19.672;2023-02-17T04:19:07;101026.38;;;5.01;100.00
61908;BME280;47864;52.526;19.672;2023-02-17T04:21:08;101030.38;;;5.19;100.00
61908;BME280;47864;52.526;19.672;2023-02-17T04:23:10;101015.22;;;5.10;100.00
61908;BME280;47864;52.526;19.672;2023-02-17T04:25:12;101027.22;;;5.01;100.00
61908;BME280;47864;52.526;19.672;2023-02-17T04:27:13;101007.53;;;4.81;100.00
61908;BME280;47864;52.526;19.672;2023-02-17T04:29:15;101015.13;;;4.98;100.00
61908;BME280;47864;52.526;19.672;2023-02-17T04:31:16;100992.63;;;4.69;100.00
61908;BME280;47864;52.526;19.672;2023-02-17T04:33:18;101015.13;;;4.98;100.00
61908;BME280;47864;52.526;19.672;2023-02-17T04:35:19;101004.16;;;5.05;100.00
61908;BME280;47864;52.526;19.672;2023-02-17T04:37:21;101011.75;;;5.09;100.00
61908;BME280;47864;52.526;19.672;2023-02-17T04:39:22;100998.91;;;5.05;100.00
61908;BME280;47864;52.526;19.672;2023-02-17T04:41:24;101012.78;;;5.19;100.00
61908;BME280;47864;52.526;19.672;2023-02-17T04:43:27;101011.63;;;5.23;100.00
61908;BME280;47864;52.526;19.672;2023-02-17T04:45:29;100988.81;;;4.98;100.00
61908;BME280;47864;52.526;19.672;2023-02-17T04:47:30;100992.28;;;4.86;100.00
61908;BME280;47864;52.526;19.672;2023-02-17T04:49:32;101002.28;;;4.81;100.00
61908;BME280;47864;52.526;19.672;2023-02-17T04:51:33;100997.03;;;4.81;100.00
61908;BME280;47864;52.526;19.672;2023-02-17T04:53:35;100968.75;;;4.85;100.00
61908;BME280;47864;52.526;19.672;2023-02-17T04:55:36;100994.72;;;5.15;100.00
61908;BME280;47864;52.526;19.672;2023-02-17T04:57:38;100995.53;;;5.03;100.00
61908;BME280;47864;52.526;19.672;2023-02-17T04:59:39;100992.28;;;4.99;100.00
61908;BME280;47864;52.526;19.672;2023-02-17T05:01:41;100978.09;;;4.89;100.00
61908;BME280;47864;52.526;19.672;2023-02-17T05:03:42;100997.16;;;4.92;100.00
61908;BME280;47864;52.526;19.672;2023-02-17T05:05:44;100976.31;;;5.02;100.00
61908;BME280;47864;52.526;19.672;2023-02-17T05:07:46;100977.97;;;5.16;100.00
61908;BME280;47864;52.526;19.672;2023-02-17T05:09:47;100978.81;;;5.29;100.00
61908;BME280;47864;52.526;19.672;2023-02-17T05:11:49;100982.56;;;5.38;100.00
61908;BME280;47864;52.526;19.672;2023-02-17T05:13:50;100987.72;;;5.39;100.00
61908;BME280;47864;52.526;19.672;2023-02-17T05:15:52;100984.91;;;5.42;100.00
61908;BME280;47864;52.526;19.672;2023-02-17T05:17:53;100974.09;;;5.09;100.00
61908;BME280;47864;52.526;19.672;2023-02-17T05:19:55;100979.06;;;5.01;100.00
61908;BME280;47864;52.526;19.672;2023-02-17T05:21:56;100979.47;;;4.82;100.00
61908;BME280;47864;52.526;19.672;2023-02-17T05:23:58;100974.31;;;4.68;100.00
61908;BME280;47864;52.526;19.672;2023-02-17T05:25:59;100972.63;;;4.79;100.00
61908;BME280;47864;52.526;19.672;2023-02-17T05:28:01;100976.00;;;4.81;100.00
61908;BME280;47864;52.526;19.672;2023-02-17T05:30:03;100970.41;;;4.86;100.00
61908;BME280;47864;52.526;19.672;2023-02-17T05:32:05;100958.34;;;4.83;100.00
61908;BME280;47864;52.526;19.672;2023-02-17T05:34:07;100965.25;;;4.97;100.00
61908;BME280;47864;52.526;19.672;2023-02-17T05:36:10;100953.38;;;4.79;100.00
61908;BME280;47864;52.526;19.672;2023-02-17T05:38:11;100915.34;;;4.59;100.00
61908;BME280;47864;52.526;19.672;2023-02-17T05:40:13;100971.47;;;4.83;100.00
61908;BME280;47864;52.526;19.672;2023-02-17T05:42:14;100963.25;;;4.63;100.00
61908;BME280;47864;52.526;19.672;2023-02-17T05:44:16;100983.69;;;4.84;100.00
61908;BME280;47864;52.526;19.672;2023-02-17T05:46:17;100979.06;;;5.01;100.00
61908;BME280;47864;52.526;19.672;2023-02-17T05:48:19;100973.56;;;5.04;100.00
61908;BME280;47864;52.526;19.672;2023-02-17T05:50:20;100972.13;;;5.00;100.00
61908;BME280;47864;52.526;19.672;2023-02-17T05:52:22;100973.38;;;5.07;100.00
61908;BME280;47864;52.526;19.672;2023-02-17T05:54:23;100960.25;;;4.94;100.00
61908;BME280;47864;52.526;19.672;2023-02-17T05:56:25;100957.78;;;5.04;100.00
61908;BME280;47864;52.526;19.672;2023-02-17T05:58:26;100935.09;;;4.90;100.00
61908;BME280;47864;52.526;19.672;2023-02-17T06:00:28;100955.91;;;5.06;100.00
61908;BME280;47864;52.526;19.672;2023-02-17T06:02:30;100960.09;;;4.95;100.00
61908;BME280;47864;52.526;19.672;2023-02-17T06:04:31;100955.91;;;5.06;100.00
61908;BME280;47864;52.526;19.672;2023-02-17T06:06:33;100959.44;;;5.30;100.00
61908;BME280;47864;52.526;19.672;2023-02-17T06:08:35;100921.63;;;5.07;100.00
61908;BME280;47864;52.526;19.672;2023-02-17T06:10:37;100951.56;;;5.30;100.00
61908;BME280;47864;52.526;19.672;2023-02-17T06:12:38;100955.38;;;5.26;100.00
61908;BME280;47864;52.526;19.672;2023-02-17T06:14:40;100964.31;;;5.11;100.00
61908;BME280;47864;52.526;19.672;2023-02-17T06:16:41;100950.88;;;4.90;100.00
61908;BME280;47864;52.526;19.672;2023-02-17T06:18:43;100941.84;;;4.81;100.00
61908;BME280;47864;52.526;19.672;2023-02-17T06:20:44;100961.59;;;5.00;100.00
61908;BME280;47864;52.526;19.672;2023-02-17T06:22:46;100957.59;;;5.07;100.00
61908;BME280;47864;52.526;19.672;2023-02-17T06:24:48;100953.16;;;4.94;100.00
61908;BME280;47864;52.526;19.672;2023-02-17T06:26:49;100940.47;;;4.88;100.00
61908;BME280;47864;52.526;19.672;2023-02-17T06:28:51;100938.78;;;5.00;100.00
61908;BME280;47864;52.526;19.672;2023-02-17T06:30:52;100916.25;;;4.96;100.00
61908;BME280;47864;52.526;19.672;2023-02-17T06:32:54;100938.06;;;4.85;100.00
61908;BME280;47864;52.526;19.672;2023-02-17T06:34:55;100935.94;;;4.78;100.00
61908;BME280;47864;52.526;19.672;2023-02-17T06:36:57;100949.19;;;4.89;100.00
61908;BME280;47864;52.526;19.672;2023-02-17T06:38:58;100951.69;;;5.03;100.00
61908;BME280;47864;52.526;19.672;2023-02-17T06:41:00;100949.41;;;4.98;100.00
61908;BME280;47864;52.526;19.672;2023-02-17T06:43:01;100955.16;;;5.04;100.00
61908;BME280;47864;52.526;19.672;2023-02-17T06:45:03;100938.69;;;5.02;100.00
61908;BME280;47864;52.526;19.672;2023-02-17T06:47:05;100950.22;;;5.12;100.00
61908;BME280;47864;52.526;19.672;2023-02-17T06:49:06;100910.59;;;4.89;100.00
61908;BME280;47864;52.526;19.672;2023-02-17T06:51:08;100930.06;;;4.74;100.00
61908;BME280;47864;52.526;19.672;2023-02-17T06:53:09;100931.09;;;4.97;100.00
61908;BME280;47864;52.526;19.672;2023-02-17T06:55:11;100936.56;;;5.07;100.00
61908;BME280;47864;52.526;19.672;2023-02-17T06:57:12;100949.56;;;5.21;100.00
61908;BME280;47864;52.526;19.672;2023-02-17T06:59:13;100949.66;;;5.32;100.00
61908;BME280;47864;52.526;19.672;2023-02-17T07:01:17;100950.34;;;5.47;100.00
61908;BME280;47864;52.526;19.672;2023-02-17T07:03:19;100945.72;;;5.50;100.00
61908;BME280;47864;52.526;19.672;2023-02-17T07:05:21;100932.22;;;5.55;100.00
61908;BME280;47864;52.526;19.672;2023-02-17T07:07:22;100934.94;;;5.66;100.00
61908;BME280;47864;52.526;19.672;2023-02-17T07:09:24;100933.75;;;5.70;100.00
61908;BME280;47864;52.526;19.672;2023-02-17T07:11:25;100945.56;;;5.64;100.00
61908;BME280;47864;52.526;19.672;2023-02-17T07:13:27;100944.00;;;5.62;100.00
61908;BME280;47864;52.526;19.672;2023-02-17T07:15:28;100940.66;;;5.84;100.00
61908;BME280;47864;52.526;19.672;2023-02-17T07:17:30;100948.03;;;5.79;100.00
61908;BME280;47864;52.526;19.672;2023-02-17T07:19:32;100947.09;;;5.80;100.00
61908;BME280;47864;52.526;19.672;2023-02-17T07:21:34;100929.66;;;5.66;100.00
61908;BME280;47864;52.526;19.672;2023-02-17T07:23:36;100950.88;;;5.88;100.00
61908;BME280;47864;52.526;19.672;2023-02-17T07:25:38;100919.03;;;5.67;100.00
61908;BME280;47864;52.526;19.672;2023-02-17T07:27:39;100941.56;;;5.95;100.00
61908;BME280;47864;52.526;19.672;2023-02-17T07:29:41;100941.72;;;6.05;100.00
61908;BME280;47864;52.526;19.672;2023-02-17T07:31:43;100940.50;;;5.98;100.00
61908;BME280;47864;52.526;19.672;2023-02-17T07:33:44;100933.19;;;5.90;100.00
61908;BME280;47864;52.526;19.672;2023-02-17T07:35:46;100926.34;;;5.88;100.00
61908;BME280;47864;52.526;19.672;2023-02-17T07:37:47;100942.56;;;6.05;100.00
61908;BME280;47864;52.526;19.672;2023-02-17T07:39:49;100935.47;;;5.95;100.00
61908;BME280;47864;52.526;19.672;2023-02-17T07:41:50;100912.72;;;5.94;100.00
61908;BME280;47864;52.526;19.672;2023-02-17T07:43:53;100926.84;;;5.93;100.00
61908;BME280;47864;52.526;19.672;2023-02-17T07:45:55;100925.16;;;5.92;100.00
61908;BME280;47864;52.526;19.672;2023-02-17T07:47:59;100928.09;;;5.87;100.00
61908;BME280;47864;52.526;19.672;2023-02-17T07:50:01;100926.25;;;5.77;100.00
61908;BME280;47864;52.526;19.672;2023-02-17T07:52:02;100929.00;;;5.75;100.00
61908;BME280;47864;52.526;19.672;2023-02-17T07:54:05;100923.97;;;5.72;100.00
61908;BME280;47864;52.526;19.672;2023-02-17T07:56:10;100930.53;;;5.90;100.00
61908;BME280;47864;52.526;19.672;2023-02-17T07:58:12;100927.56;;;5.95;100.00
61908;BME280;47864;52.526;19.672;2023-02-17T08:00:14;100930.84;;;5.86;100.00
61908;BME280;47864;52.526;19.672;2023-02-17T08:02:16;100929.03;;;5.86;100.00
61908;BME280;47864;52.526;19.672;2023-02-17T08:04:17;100926.66;;;5.59;100.00
61908;BME280;47864;52.526;19.672;2023-02-17T08:06:21;100904.34;;;5.52;100.00
61908;BME280;47864;52.526;19.672;2023-02-17T08:08:23;100918.38;;;5.40;100.00
61908;BME280;47864;52.526;19.672;2023-02-17T08:10:25;100918.38;;;5.40;100.00
61908;BME280;47864;52.526;19.672;2023-02-17T08:12:26;100913.69;;;5.56;100.00
61908;BME280;47864;52.526;19.672;2023-02-17T08:14:30;100873.09;;;5.24;100.00
61908;BME280;47864;52.526;19.672;2023-02-17T08:16:31;100905.91;;;5.31;100.00
61908;BME280;47864;52.526;19.672;2023-02-17T08:18:33;100892.56;;;5.21;100.00
61908;BME280;47864;52.526;19.672;2023-02-17T08:20:37;100892.50;;;5.10;100.00
61908;BME280;47864;52.526;19.672;2023-02-17T08:22:38;100914.22;;;5.25;100.00
61908;BME280;47864;52.526;19.672;2023-02-17T08:24:40;100905.19;;;5.16;100.00
61908;BME280;47864;52.526;19.672;2023-02-17T08:26:42;100918.59;;;5.37;100.00
61908;BME280;47864;52.526;19.672;2023-02-17T08:28:44;100914.63;;;5.31;100.00
61908;BME280;47864;52.526;19.672;2023-02-17T08:30:45;100892.28;;;5.37;100.00
61908;BME280;47864;52.526;19.672;2023-02-17T08:32:47;100899.47;;;5.35;100.00
61908;BME280;47864;52.526;19.672;2023-02-17T08:34:48;100909.56;;;5.41;100.00
61908;BME280;47864;52.526;19.672;2023-02-17T08:36:50;100892.69;;;5.44;100.00
61908;BME280;47864;52.526;19.672;2023-02-17T08:38:52;100905.19;;;5.77;100.00
61908;BME280;47864;52.526;19.672;2023-02-17T08:40:53;100903.28;;;5.91;100.00
61908;BME280;47864;52.526;19.672;2023-02-17T08:42:55;100903.56;;;6.10;100.00
61908;BME280;47864;52.526;19.672;2023-02-17T08:44:56;100903.66;;;5.98;100.00
61908;BME280;47864;52.526;19.672;2023-02-17T08:46:58;100881.97;;;5.94;100.00
61908;BME280;47864;52.526;19.672;2023-02-17T08:48:59;100892.91;;;6.12;100.00
61908;BME280;47864;52.526;19.672;2023-02-17T08:51:02;100900.59;;;6.26;100.00
61908;BME280;47864;52.526;19.672;2023-02-17T08:53:03;100888.31;;;6.38;100.00
61908;BME280;47864;52.526;19.672;2023-02-17T08:55:05;100881.59;;;6.23;100.00
61908;BME280;47864;52.526;19.672;2023-02-17T08:57:07;100864.56;;;6.27;100.00
61908;BME280;47864;52.526;19.672;2023-02-17T08:59:09;100881.50;;;6.46;100.00
61908;BME280;47864;52.526;19.672;2023-02-17T09:01:11;100869.88;;;6.60;100.00
61908;BME280;47864;52.526;19.672;2023-02-17T09:03:13;100865.47;;;6.49;100.00
61908;BME280;47864;52.526;19.672;2023-02-17T09:05:15;100862.59;;;6.64;100.00
61908;BME280;47864;52.526;19.672;2023-02-17T09:07:16;100745.88;;;5.95;100.00
61908;BME280;47864;52.526;19.672;2023-02-17T09:09:20;100852.91;;;6.64;100.00
61908;BME280;47864;52.526;19.672;2023-02-17T09:11:22;100835.84;;;6.35;100.00
61908;BME280;47864;52.526;19.672;2023-02-17T09:13:24;100843.63;;;6.36;100.00
61908;BME280;47864;52.526;19.672;2023-02-17T09:15:26;100841.25;;;6.33;100.00
61908;BME280;47864;52.526;19.672;2023-02-17T09:17:27;100843.06;;;6.33;100.00
61908;BME280;47864;52.526;19.672;2023-02-17T09:19:29;100846.78;;;6.64;100.00
61908;BME280;47864;52.526;19.672;2023-02-17T09:21:30;100842.47;;;6.63;100.00
61908;BME280;47864;52.526;19.672;2023-02-17T09:23:32;100822.81;;;6.44;100.00
61908;BME280;47864;52.526;19.672;2023-02-17T09:25:34;100805.56;;;6.29;100.00
61908;BME280;47864;52.526;19.672;2023-02-17T09:27:35;100807.00;;;6.22;100.00
61908;BME280;47864;52.526;19.672;2023-02-17T09:29:37;100828.78;;;6.35;100.00
61908;BME280;47864;52.526;19.672;2023-02-17T09:31:39;100832.06;;;6.50;100.00
61908;BME280;47864;52.526;19.672;2023-02-17T09:33:41;100814.16;;;6.42;100.00
61908;BME280;47864;52.526;19.672;2023-02-17T09:35:43;100815.88;;;6.55;100.00
61908;BME280;47864;52.526;19.672;2023-02-17T09:37:44;100829.03;;;6.77;100.00
61908;BME280;47864;52.526;19.672;2023-02-17T09:39:48;100814.81;;;6.57;100.00
61908;BME280;47864;52.526;19.672;2023-02-17T09:41:50;100818.75;;;6.74;100.00
61908;BME280;47864;52.526;19.672;2023-02-17T09:43:53;100817.75;;;6.86;100.00
61908;BME280;47864;52.526;19.672;2023-02-17T09:45:59;100815.63;;;6.91;100.00
61908;BME280;47864;52.526;19.672;2023-02-17T09:48:06;100809.06;;;6.74;100.00
61908;BME280;47864;52.526;19.672;2023-02-17T09:50:19;100804.84;;;6.72;100.00
61908;BME280;47864;52.526;19.672;2023-02-17T09:52:33;100787.22;;;6.61;100.00
61908;BME280;47864;52.526;19.672;2023-02-17T09:56:50;100803.84;;;6.95;100.00
61908;BME280;47864;52.526;19.672;2023-02-17T09:58:53;100808.44;;;6.82;100.00
61908;BME280;47864;52.526;19.672;2023-02-17T10:00:59;100777.41;;;6.74;100.00
61908;BME280;47864;52.526;19.672;2023-02-17T10:03:29;100791.63;;;6.94;100.00
61908;BME280;47864;52.526;19.672;2023-02-17T10:05:35;100770.00;;;7.11;100.00
61908;BME280;47864;52.526;19.672;2023-02-17T10:07:49;100774.63;;;6.98;100.00
61908;BME280;47864;52.526;19.672;2023-02-17T10:10:15;100782.91;;;7.25;100.00
61908;BME280;47864;52.526;19.672;2023-02-17T10:12:24;100777.72;;;7.35;100.00
61908;BME280;47864;52.526;19.672;2023-02-17T10:16:37;100777.91;;;7.11;100.00
61908;BME280;47864;52.526;19.672;2023-02-17T10:18:48;100771.75;;;6.90;100.00
61908;BME280;47864;52.526;19.672;2023-02-17T10:21:11;100771.84;;;7.00;100.00
61908;BME280;47864;52.526;19.672;2023-02-17T10:23:23;100768.53;;;7.18;100.00
61908;BME280;47864;52.526;19.672;2023-02-17T10:25:48;100750.47;;;7.14;100.00
61908;BME280;47864;52.526;19.672;2023-02-17T10:28:08;100761.25;;;7.43;100.00
61908;BME280;47864;52.526;19.672;2023-02-17T10:30:40;100760.47;;;7.31;100.00
61908;BME280;47864;52.526;19.672;2023-02-17T10:37:26;100739.44;;;7.09;100.00
61908;BME280;47864;52.526;19.672;2023-02-17T10:41:36;100722.66;;;7.62;100.00
61908;BME280;47864;52.526;19.672;2023-02-17T10:43:39;100719.81;;;7.75;100.00
61908;BME280;47864;52.526;19.672;2023-02-17T10:45:45;100717.03;;;7.77;100.00
61908;BME280;47864;52.526;19.672;2023-02-17T10:47:46;100712.03;;;7.53;100.00
61908;BME280;47864;52.526;19.672;2023-02-17T10:49:50;100697.28;;;7.50;100.00
61908;BME280;47864;52.526;19.672;2023-02-17T10:51:52;100694.25;;;7.55;100.00
61908;BME280;47864;52.526;19.672;2023-02-17T10:54:12;100706.19;;;7.49;100.00
61908;BME280;47864;52.526;19.672;2023-02-17T10:56:19;100679.91;;;7.48;100.00
61908;BME280;47864;52.526;19.672;2023-02-17T10:58:29;100693.97;;;7.58;100.00
61908;BME280;47864;52.526;19.672;2023-02-17T11:00:31;100695.41;;;7.41;100.00
61908;BME280;47864;52.526;19.672;2023-02-17T11:04:42;100692.44;;;7.35;100.00
61908;BME280;47864;52.526;19.672;2023-02-17T11:06:49;100677.56;;;7.34;100.00
61908;BME280;47864;52.526;19.672;2023-02-17T11:08:57;100679.28;;;7.03;100.00
61908;BME280;47864;52.526;19.672;2023-02-17T11:11:21;100668.38;;;7.07;100.00
61908;BME280;47864;52.526;19.672;2023-02-17T11:13:42;100675.56;;;7.05;100.00